createdAt,value
2019-05-23T00:01:12.553Z,13.10
2019-05-23T00:03:45.512Z,13.40
2019-05-23T00:06:30.965Z,13.30
2019-05-23T00:09:00.621Z,13.70
2019-05-23T00:11:46.992Z,14.43
2019-05-23T00:14:38.170Z,13.93
2019-05-23T00:17:10.151Z,14.43
2019-05-23T00:19:40.345Z,14.27
2019-05-23T00:22:11.654Z,14.40
2019-05-23T00:24:42.441Z,15.63
2019-05-23T00:27:11.379Z,14.47
2019-05-23T00:29:40.609Z,14.40
2019-05-23T00:32:22.756Z,15.53
2019-05-23T00:34:52.829Z,15.57
2019-05-23T00:37:23.739Z,14.53
2019-05-23T00:39:52.995Z,15.50
2019-05-23T00:42:22.409Z,15.17
2019-05-23T00:44:52.177Z,14.60
2019-05-23T00:47:21.120Z,15.13
2019-05-23T00:49:50.193Z,15.37
2019-05-23T00:52:18.952Z,15.23
2019-05-23T00:54:47.964Z,14.60
2019-05-23T00:57:17.332Z,14.23
2019-05-23T00:59:46.177Z,14.50
2019-05-23T01:02:14.609Z,15.45
2019-05-23T01:04:45.251Z,14.67
2019-05-23T01:07:14.708Z,15.67
2019-05-23T01:09:44.131Z,15.63
2019-05-23T01:12:14.094Z,15.57
2019-05-23T01:14:42.973Z,16.20
2019-05-23T01:17:12.009Z,15.97
2019-05-23T01:19:40.646Z,17.10
2019-05-23T01:22:10.785Z,15.83
2019-05-23T01:24:40.852Z,15.53
2019-05-23T01:27:10.198Z,14.70
2019-05-23T01:29:40.525Z,15.87
2019-05-23T01:32:11.568Z,14.57
2019-05-23T01:34:41.227Z,15.17
2019-05-23T01:37:10.096Z,15.13
2019-05-23T01:39:38.888Z,15.30
2019-05-23T01:42:07.936Z,15.47
2019-05-23T01:44:37.268Z,15.27
2019-05-23T01:47:06.054Z,15.57
2019-05-23T01:49:35.796Z,15.03
2019-05-23T01:52:05.465Z,16.37
2019-05-23T01:54:33.868Z,16.10
2019-05-23T01:57:03.150Z,15.57
2019-05-23T01:59:32.566Z,15.53
2019-05-23T02:02:01.176Z,16.17
2019-05-23T02:04:30.126Z,16.40
2019-05-23T02:06:58.663Z,15.20
2019-05-23T02:09:27.840Z,16.37
2019-05-23T02:11:56.881Z,15.83
2019-05-23T02:14:26.454Z,16.30
2019-05-23T02:16:55.897Z,16.77
2019-05-23T02:19:25.905Z,16.37
2019-05-23T02:21:55.480Z,16.47
2019-05-23T02:24:24.184Z,16.70
2019-05-23T02:26:52.762Z,15.73
2019-05-23T02:29:22.066Z,15.33
2019-05-23T02:31:50.817Z,16.20
2019-05-23T02:34:19.686Z,15.83
2019-05-23T02:36:49.934Z,16.00
2019-05-23T02:39:36.144Z,15.83
2019-05-23T02:42:15.369Z,15.40
2019-05-23T02:44:44.430Z,16.50
2019-05-23T02:47:21.459Z,15.30
2019-05-23T02:49:50.938Z,16.07
2019-05-23T02:52:34.667Z,15.23
2019-05-23T02:55:04.947Z,15.83
2019-05-23T02:57:33.666Z,16.50
2019-05-23T03:00:23.880Z,16.67
2019-05-23T03:02:52.423Z,16.73
2019-05-23T03:05:22.714Z,17.60
2019-05-23T03:07:53.154Z,17.57
2019-05-23T03:10:24.909Z,18.00
2019-05-23T03:12:54.353Z,17.00
2019-05-23T03:15:24.724Z,16.80
2019-05-23T03:17:55.462Z,17.30
2019-05-23T03:20:25.119Z,18.30
2019-05-23T03:23:00.219Z,17.17
2019-05-23T03:25:39.113Z,18.67
2019-05-23T03:28:12.403Z,17.63
2019-05-23T03:30:48.377Z,17.15
2019-05-23T03:33:18.427Z,18.33
2019-05-23T03:35:57.987Z,19.17
2019-05-23T03:38:26.831Z,19.20
2019-05-23T03:40:55.498Z,19.33
2019-05-23T03:43:24.293Z,18.57
2019-05-23T03:45:58.959Z,18.50
2019-05-23T03:48:27.834Z,18.93
2019-05-23T03:50:57.704Z,18.77
2019-05-23T03:53:27.923Z,19.90
2019-05-23T03:55:57.535Z,18.23
2019-05-23T03:58:27.286Z,19.13
2019-05-23T04:00:57.062Z,19.03
2019-05-23T04:03:27.010Z,18.97
2019-05-23T04:05:56.121Z,19.33
2019-05-23T04:08:24.898Z,20.20
2019-05-23T04:10:53.366Z,19.67
2019-05-23T04:13:21.962Z,19.43
2019-05-23T04:15:50.538Z,18.93
2019-05-23T04:18:18.929Z,19.13
2019-05-23T04:20:47.377Z,19.10
2019-05-23T04:23:16.643Z,18.97
2019-05-23T04:25:46.588Z,20.77
2019-05-23T04:28:15.253Z,20.63
2019-05-23T04:30:44.428Z,19.43
2019-05-23T04:33:13.162Z,18.97
2019-05-23T04:35:41.733Z,19.43
2019-05-23T04:38:10.674Z,19.13
2019-05-23T04:40:39.321Z,18.47
2019-05-23T04:43:07.814Z,17.97
2019-05-23T04:45:36.390Z,19.43
2019-05-23T04:48:04.875Z,17.40
2019-05-23T04:50:33.912Z,18.10
2019-05-23T04:53:02.321Z,17.97
2019-05-23T04:55:31.253Z,17.37
2019-05-23T04:58:03.908Z,17.43
2019-05-23T05:00:31.047Z,16.63
2019-05-23T05:02:59.519Z,18.27
2019-05-23T05:05:27.943Z,21.05
2019-05-23T05:07:56.616Z,18.37
2019-05-23T05:10:26.394Z,18.27
2019-05-23T05:12:54.867Z,18.10
2019-05-23T05:15:24.029Z,18.60
2019-05-23T05:17:52.538Z,18.07
2019-05-23T05:20:21.581Z,17.17
2019-05-23T05:22:51.022Z,17.67
2019-05-23T05:25:20.688Z,17.80
2019-05-23T05:27:49.081Z,18.27
2019-05-23T05:30:17.963Z,17.67
2019-05-23T05:32:47.257Z,17.33
2019-05-23T05:35:16.134Z,17.90
2019-05-23T05:37:44.794Z,16.20
2019-05-23T05:40:14.328Z,18.10
2019-05-23T05:42:44.001Z,17.33
2019-05-23T05:45:13.430Z,17.37
2019-05-23T05:47:42.511Z,17.30
2019-05-23T05:50:12.736Z,17.98
2019-05-23T05:52:41.331Z,17.90
2019-05-23T05:55:10.416Z,17.40
2019-05-23T05:57:38.932Z,17.03
2019-05-23T06:00:13.299Z,16.87
2019-05-23T06:02:42.084Z,17.00
2019-05-23T06:05:12.797Z,17.97
2019-05-23T06:07:42.193Z,17.93
2019-05-23T06:10:13.128Z,17.87
2019-05-23T06:12:42.251Z,17.30
2019-05-23T06:15:11.230Z,17.27
2019-05-23T06:17:39.984Z,17.60
2019-05-23T06:20:08.938Z,18.27
2019-05-23T06:22:38.071Z,17.33
2019-05-23T06:25:08.857Z,17.20
2019-05-23T06:27:38.226Z,17.40
2019-05-23T06:30:09.292Z,16.13
2019-05-23T06:32:38.251Z,16.20
2019-05-23T06:35:07.691Z,17.07
2019-05-23T06:37:36.251Z,16.50
2019-05-23T06:40:06.686Z,16.50
2019-05-23T06:42:35.170Z,16.23
2019-05-23T06:45:06.227Z,16.10
2019-05-23T06:47:34.884Z,16.07
2019-05-23T06:50:04.821Z,15.73
2019-05-23T06:52:33.261Z,15.53
2019-05-23T06:55:01.709Z,15.80
2019-05-23T06:57:30.158Z,15.67
2019-05-23T06:59:59.065Z,14.93
2019-05-23T07:02:31.894Z,15.33
2019-05-23T07:04:58.525Z,14.87
2019-05-23T07:07:27.786Z,15.70
2019-05-23T07:09:57.244Z,15.50
2019-05-23T07:12:25.813Z,15.20
2019-05-23T07:14:54.640Z,15.07
2019-05-23T07:17:24.549Z,13.77
2019-05-23T07:19:52.951Z,14.35
2019-05-23T07:22:21.454Z,13.90
2019-05-23T07:24:58.077Z,14.23
2019-05-23T07:27:21.469Z,14.50
2019-05-23T07:29:49.978Z,13.90
2019-05-23T07:32:18.379Z,14.17
2019-05-23T07:34:46.790Z,14.87
2019-05-23T07:37:15.513Z,13.87
2019-05-23T07:39:44.080Z,14.00
2019-05-23T07:42:12.497Z,13.32
2019-05-23T07:44:48.314Z,13.10
2019-05-23T07:47:12.759Z,14.17
2019-05-23T07:49:41.192Z,13.67
2019-05-23T07:52:09.590Z,13.87
2019-05-23T07:54:45.988Z,12.43
2019-05-23T07:57:16.637Z,13.08
2019-05-23T07:59:45.312Z,13.20
2019-05-23T08:02:25.658Z,12.50
2019-05-23T08:04:54.223Z,11.87
2019-05-23T08:07:24.272Z,11.60
2019-05-23T08:09:53.029Z,11.90
2019-05-23T08:12:21.757Z,11.80
2019-05-23T08:14:50.773Z,12.17
2019-05-23T08:17:19.407Z,11.07
2019-05-23T08:19:50.117Z,11.27
2019-05-23T08:22:18.034Z,10.83
2019-05-23T08:24:50.954Z,11.70
2019-05-23T08:27:18.089Z,10.97
2019-05-23T08:29:46.980Z,10.27
2019-05-23T08:32:16.254Z,9.95
2019-05-23T08:34:45.225Z,10.50
2019-05-23T08:37:13.627Z,9.53
2019-05-23T08:39:42.399Z,9.67
2019-05-23T08:42:12.084Z,9.07
2019-05-23T08:44:41.046Z,9.43
2019-05-23T08:47:10.810Z,9.00
2019-05-23T08:49:39.569Z,7.67
2019-05-23T08:52:08.017Z,8.80
2019-05-23T08:54:37.050Z,8.07
2019-05-23T08:57:06.897Z,8.07
2019-05-23T08:59:35.514Z,7.57
2019-05-23T09:02:04.253Z,7.30
2019-05-23T09:04:32.723Z,6.80
2019-05-23T09:07:01.774Z,7.00
2019-05-23T09:09:30.709Z,7.00
2019-05-23T09:11:59.469Z,6.63
2019-05-23T09:14:28.190Z,7.20
2019-05-23T09:16:56.595Z,6.70
2019-05-23T09:19:25.465Z,7.13
2019-05-23T09:21:57.735Z,7.13
2019-05-23T09:24:24.023Z,6.97
2019-05-23T09:26:52.773Z,7.87
2019-05-23T09:29:21.456Z,6.60
2019-05-23T09:31:49.997Z,6.87
2019-05-23T09:34:18.481Z,6.90
2019-05-23T09:36:46.883Z,6.77
2019-05-23T09:39:17.474Z,6.37
2019-05-23T09:41:46.297Z,6.43
2019-05-23T09:44:14.860Z,6.57
2019-05-23T09:46:43.618Z,7.20
2019-05-23T09:49:12.083Z,6.73
2019-05-23T09:51:40.486Z,6.13
2019-05-23T09:54:08.961Z,5.90
2019-05-23T09:56:38.508Z,5.60
2019-05-23T09:59:06.893Z,6.60
2019-05-23T10:01:35.386Z,6.03
2019-05-23T10:04:04.121Z,6.20
2019-05-23T10:06:32.593Z,5.23
2019-05-23T10:09:01.011Z,4.80
2019-05-23T10:11:29.405Z,5.90
2019-05-23T10:13:57.806Z,5.30
2019-05-23T10:16:26.720Z,5.30
2019-05-23T10:18:55.121Z,5.07
2019-05-23T10:21:23.517Z,4.70
2019-05-23T10:23:52.105Z,5.10
2019-05-23T10:26:20.845Z,5.50
2019-05-23T10:28:49.341Z,5.27
2019-05-23T10:31:19.313Z,5.00
2019-05-23T10:33:47.968Z,5.20
2019-05-23T10:36:16.404Z,4.15
2019-05-23T10:38:44.979Z,4.53
2019-05-23T10:41:13.438Z,4.30
2019-05-23T10:43:41.999Z,4.97
2019-05-23T10:46:10.708Z,4.27
2019-05-23T10:48:39.801Z,3.70
2019-05-23T10:51:08.263Z,3.80
2019-05-23T10:53:36.807Z,3.93
2019-05-23T10:56:05.958Z,3.60
2019-05-23T10:58:35.130Z,3.40
2019-05-23T11:01:04.138Z,3.57
2019-05-23T11:03:32.528Z,3.30
2019-05-23T11:06:14.855Z,3.50
2019-05-23T11:08:31.343Z,3.40
2019-05-23T11:10:59.733Z,3.23
2019-05-23T11:13:28.500Z,3.17
2019-05-23T11:15:56.933Z,3.40
2019-05-23T11:18:25.504Z,3.40
2019-05-23T11:20:53.979Z,3.40
2019-05-23T11:23:24.036Z,2.80
2019-05-23T11:25:53.083Z,3.80
2019-05-23T11:28:21.658Z,3.30
2019-05-23T11:30:54.674Z,3.13
2019-05-23T11:33:23.510Z,2.97
2019-05-23T11:35:52.118Z,2.97
2019-05-23T11:38:20.902Z,2.67
2019-05-23T11:40:49.533Z,2.87
2019-05-23T11:43:18.081Z,3.30
2019-05-23T11:45:48.336Z,2.95
2019-05-23T11:48:17.133Z,2.98
2019-05-23T11:50:45.702Z,3.80
2019-05-23T11:53:14.164Z,3.37
2019-05-23T11:55:42.849Z,3.43
2019-05-23T11:58:11.790Z,3.10
2019-05-23T12:00:46.635Z,2.70
2019-05-23T12:03:15.069Z,3.15
2019-05-23T12:05:43.467Z,2.77
2019-05-23T12:08:12.205Z,2.60
2019-05-23T12:10:40.634Z,2.90
2019-05-23T12:13:09.430Z,2.40
2019-05-23T12:15:39.783Z,3.00
2019-05-23T12:18:09.631Z,2.70
2019-05-23T12:20:38.380Z,2.80
2019-05-23T12:23:10.853Z,3.47
2019-05-23T12:25:37.501Z,3.80
2019-05-23T12:28:07.853Z,3.97
2019-05-23T12:30:36.864Z,3.63
2019-05-23T12:33:05.536Z,4.10
2019-05-23T12:35:34.105Z,3.33
2019-05-23T12:38:02.903Z,3.10
2019-05-23T12:40:31.277Z,2.97
2019-05-23T12:42:59.773Z,2.90
2019-05-23T12:45:28.166Z,3.27
2019-05-23T12:48:01.137Z,3.10
2019-05-23T12:50:53.813Z,2.67
2019-05-23T12:53:19.789Z,2.70
2019-05-23T12:55:48.358Z,2.33
2019-05-23T12:58:18.659Z,2.83
2019-05-23T13:00:48.995Z,2.83
2019-05-23T13:03:17.773Z,2.60
2019-05-23T13:05:46.308Z,2.70
2019-05-23T13:08:14.771Z,2.43
2019-05-23T13:10:43.192Z,2.73
2019-05-23T13:13:11.869Z,2.80
2019-05-23T13:15:40.293Z,2.87
2019-05-23T13:18:08.697Z,2.63
2019-05-23T13:20:37.663Z,2.80
2019-05-23T13:23:06.661Z,2.70
2019-05-23T13:25:35.416Z,2.90
2019-05-23T13:28:04.003Z,2.50
2019-05-23T13:30:32.591Z,2.47
2019-05-23T13:33:03.592Z,2.50
2019-05-23T13:35:31.141Z,3.00
2019-05-23T13:37:59.537Z,3.13
2019-05-23T13:40:28.142Z,2.73
2019-05-23T13:42:59.243Z,2.97
2019-05-23T13:45:27.972Z,2.80
2019-05-23T13:47:56.373Z,2.90
2019-05-23T13:50:25.735Z,2.80
2019-05-23T13:52:55.103Z,3.10
2019-05-23T13:55:24.385Z,3.10
2019-05-23T13:57:52.793Z,2.60
2019-05-23T14:00:22.629Z,3.10
2019-05-23T14:02:51.363Z,3.03
2019-05-23T14:05:20.261Z,2.47
2019-05-23T14:07:48.654Z,2.63
2019-05-23T14:10:18.292Z,2.73
2019-05-23T14:12:46.759Z,2.83
2019-05-23T14:15:17.058Z,2.85
2019-05-23T14:17:46.426Z,2.77
2019-05-23T14:20:16.700Z,2.70
2019-05-23T14:22:47.511Z,2.93
2019-05-23T14:25:16.779Z,2.97
2019-05-23T14:27:52.686Z,2.80
2019-05-23T14:30:29.757Z,3.12
2019-05-23T14:33:00.333Z,2.80
2019-05-23T14:35:30.415Z,2.70
2019-05-23T14:38:00.759Z,3.10
2019-05-23T14:40:29.620Z,2.63
2019-05-23T14:42:59.651Z,3.00
2019-05-23T14:45:35.682Z,2.87
2019-05-23T14:48:13.219Z,2.98
2019-05-23T14:51:01.606Z,3.17
2019-05-23T14:53:31.642Z,2.80
2019-05-23T14:56:00.049Z,3.20
2019-05-23T14:58:28.544Z,2.57
2019-05-23T15:00:57.514Z,2.63
2019-05-23T15:03:26.077Z,3.20
2019-05-23T15:05:54.473Z,3.00
2019-05-23T15:08:23.234Z,2.87
2019-05-23T15:10:51.818Z,3.00
2019-05-23T15:13:21.252Z,2.60
2019-05-23T15:15:49.664Z,2.87
2019-05-23T15:18:18.207Z,2.80
2019-05-23T15:20:46.649Z,2.40
2019-05-23T15:23:15.146Z,2.33
2019-05-23T15:25:43.537Z,2.60
2019-05-23T15:28:12.045Z,2.27
2019-05-23T15:30:40.449Z,2.50
2019-05-23T15:33:08.864Z,2.33
2019-05-23T15:35:37.264Z,2.80
2019-05-23T15:38:06.011Z,2.60
2019-05-23T15:40:35.257Z,2.30
2019-05-23T15:43:04.363Z,2.33
2019-05-23T15:45:33.464Z,2.57
2019-05-23T15:48:02.331Z,2.20
2019-05-23T15:50:41.382Z,2.37
2019-05-23T15:53:14.655Z,2.60
2019-05-23T15:56:16.822Z,2.20
2019-05-23T15:58:36.048Z,2.57
2019-05-23T16:01:18.977Z,2.70
2019-05-23T16:03:50.117Z,2.70
2019-05-23T16:06:21.537Z,2.20
2019-05-23T16:08:51.006Z,2.47
2019-05-23T16:11:20.372Z,2.53
2019-05-23T16:13:49.190Z,2.13
2019-05-23T16:16:17.854Z,2.40
2019-05-23T16:18:47.586Z,2.50
2019-05-23T16:21:17.214Z,2.10
2019-05-23T16:23:46.231Z,2.60
2019-05-23T16:26:14.874Z,2.33
2019-05-23T16:28:43.884Z,2.60
2019-05-23T16:31:12.706Z,2.53
2019-05-23T16:33:41.370Z,2.40
2019-05-23T16:36:10.098Z,2.33
2019-05-23T16:38:38.825Z,2.47
2019-05-23T16:41:11.219Z,2.40
2019-05-23T16:43:37.932Z,2.17
2019-05-23T16:46:06.404Z,2.80
2019-05-23T16:48:35.518Z,2.50
2019-05-23T16:51:04.748Z,2.33
2019-05-23T16:53:35.861Z,2.33
2019-05-23T16:56:22.922Z,2.30
2019-05-23T16:59:03.384Z,2.47
2019-05-23T17:01:33.957Z,2.57
2019-05-23T17:04:04.078Z,2.60
2019-05-23T17:06:37.078Z,2.17
2019-05-23T17:09:17.196Z,2.50
2019-05-23T17:11:47.250Z,2.40
2019-05-23T17:14:20.382Z,2.40
2019-05-23T17:17:04.645Z,2.40
2019-05-23T17:19:37.455Z,2.30
2019-05-23T17:22:10.721Z,2.20
2019-05-23T17:24:40.849Z,2.50
2019-05-23T17:27:16.792Z,2.00
2019-05-23T17:29:53.117Z,2.60
2019-05-23T17:32:23.159Z,2.70
2019-05-23T17:34:51.787Z,2.50
2019-05-23T17:37:21.878Z,2.17
2019-05-23T17:39:53.359Z,2.60
2019-05-23T17:42:21.256Z,2.07
2019-05-23T17:44:49.656Z,2.30
2019-05-23T17:47:18.526Z,2.40
2019-05-23T17:49:46.923Z,2.20
2019-05-23T17:52:16.117Z,2.07
2019-05-23T17:54:44.610Z,2.10
2019-05-23T17:57:13.182Z,2.13
2019-05-23T17:59:41.879Z,2.20
2019-05-23T18:02:11.391Z,2.40
2019-05-23T18:04:39.790Z,2.15
2019-05-23T18:07:08.281Z,2.10
2019-05-23T18:09:36.917Z,2.50
2019-05-23T18:12:07.344Z,2.10
2019-05-23T18:14:36.586Z,2.27
2019-05-23T18:17:06.428Z,2.53
2019-05-23T18:19:35.424Z,2.63
2019-05-23T18:22:05.501Z,3.30
2019-05-23T18:24:33.899Z,2.77
2019-05-23T18:27:02.686Z,2.83
2019-05-23T18:29:31.630Z,2.73
2019-05-23T18:32:00.196Z,2.10
2019-05-23T18:34:29.765Z,2.20
2019-05-23T18:36:58.488Z,2.40
2019-05-23T18:39:27.013Z,2.53
2019-05-23T18:41:55.502Z,2.50
2019-05-23T18:44:23.896Z,2.00
2019-05-23T18:46:54.206Z,2.27
2019-05-23T18:49:22.661Z,2.77
2019-05-23T18:51:51.424Z,1.90
2019-05-23T18:54:20.153Z,2.50
2019-05-23T18:56:48.648Z,2.40
2019-05-23T18:59:17.622Z,2.43
2019-05-23T19:01:46.130Z,2.13
2019-05-23T19:04:14.710Z,2.10
2019-05-23T19:06:43.169Z,2.37
2019-05-23T19:09:13.254Z,2.20
2019-05-23T19:11:41.737Z,2.53
2019-05-23T19:14:10.429Z,2.70
2019-05-23T19:16:39.659Z,2.70
2019-05-23T19:19:08.630Z,3.03
2019-05-23T19:21:37.394Z,2.43
2019-05-23T19:24:06.179Z,2.70
2019-05-23T19:26:35.053Z,2.50
2019-05-23T19:29:03.528Z,2.53
2019-05-23T19:31:32.226Z,2.77
2019-05-23T19:34:00.821Z,2.70
2019-05-23T19:36:29.961Z,3.00
2019-05-23T19:38:58.439Z,2.60
2019-05-23T19:41:36.805Z,2.70
2019-05-23T19:43:57.325Z,3.02
2019-05-23T19:46:25.985Z,2.80
2019-05-23T19:48:55.099Z,3.10
2019-05-23T19:51:23.753Z,2.93
2019-05-23T19:53:52.315Z,3.27
2019-05-23T19:56:20.800Z,2.80
2019-05-23T19:58:49.208Z,3.07
2019-05-23T20:01:18.481Z,3.00
2019-05-23T20:03:47.668Z,4.00
2019-05-23T20:06:16.067Z,6.10
2019-05-23T20:08:45.296Z,9.40
2019-05-23T20:11:14.435Z,5.97
2019-05-23T20:13:42.888Z,3.90
2019-05-23T20:16:11.402Z,4.40
2019-05-23T20:18:39.956Z,4.10
2019-05-23T20:21:08.349Z,4.30
2019-05-23T20:23:36.781Z,3.90
2019-05-23T20:26:08.292Z,3.85
2019-05-23T20:28:39.551Z,3.97
2019-05-23T20:31:07.270Z,4.17
2019-05-23T20:33:35.715Z,3.50
2019-05-23T20:36:06.149Z,3.50
2019-05-23T20:38:34.853Z,4.00
2019-05-23T20:41:03.452Z,4.67
2019-05-23T20:43:31.906Z,5.13
2019-05-23T20:46:00.323Z,4.40
2019-05-23T20:48:29.104Z,4.30
2019-05-23T20:50:57.722Z,4.43
2019-05-23T20:53:26.094Z,3.50
2019-05-23T20:55:54.513Z,3.77
2019-05-23T20:58:23.002Z,4.10
2019-05-23T21:00:56.093Z,4.00
2019-05-23T21:03:25.737Z,3.90
2019-05-23T21:05:54.499Z,4.30
2019-05-23T21:08:22.897Z,8.10
2019-05-23T21:10:51.395Z,7.30
2019-05-23T21:13:19.922Z,5.30
2019-05-23T21:15:48.513Z,5.30
2019-05-23T21:18:17.168Z,5.40
2019-05-23T21:20:45.659Z,6.40
2019-05-23T21:23:14.070Z,7.43
2019-05-23T21:25:44.191Z,8.70
2019-05-23T21:28:12.591Z,8.20
2019-05-23T21:30:41.260Z,6.43
2019-05-23T21:33:09.932Z,5.90
2019-05-23T21:35:38.375Z,5.20
2019-05-23T21:38:06.845Z,4.80
2019-05-23T21:40:38.440Z,4.03
2019-05-23T21:43:07.248Z,3.73
2019-05-23T21:45:35.790Z,3.63
2019-05-23T21:48:04.842Z,3.93
2019-05-23T21:50:33.474Z,3.87
2019-05-23T21:53:02.391Z,4.10
2019-05-23T21:55:41.370Z,3.80
2019-05-23T21:58:11.739Z,3.93
2019-05-23T22:01:06.167Z,3.60
2019-05-23T22:03:56.326Z,3.40
2019-05-23T22:06:35.724Z,3.50
2019-05-23T22:09:07.779Z,3.70
2019-05-23T22:11:36.413Z,3.60
2019-05-23T22:14:05.994Z,3.63
2019-05-23T22:16:34.676Z,3.10
2019-05-23T22:19:03.773Z,3.10
2019-05-23T22:21:32.213Z,3.00
2019-05-23T22:24:01.288Z,3.37
2019-05-23T22:26:29.922Z,3.23
2019-05-23T22:28:58.449Z,3.40
2019-05-23T22:31:27.228Z,3.50
2019-05-23T22:34:06.814Z,3.47
2019-05-23T22:36:44.352Z,3.50
2019-05-23T22:39:12.753Z,3.27
2019-05-23T22:41:41.155Z,3.20
2019-05-23T22:44:09.860Z,3.77
2019-05-23T22:46:38.770Z,3.50
2019-05-23T22:49:07.224Z,3.30
2019-05-23T22:51:35.672Z,3.23
2019-05-23T22:54:04.529Z,2.93
2019-05-23T22:56:32.929Z,3.60
2019-05-23T22:59:01.355Z,3.53
2019-05-23T23:01:30.414Z,3.40
2019-05-23T23:03:58.806Z,3.67
2019-05-23T23:06:28.589Z,3.73
2019-05-23T23:08:57.286Z,3.73
2019-05-23T23:11:25.753Z,3.80
2019-05-23T23:13:54.153Z,3.90
2019-05-23T23:16:22.572Z,3.90
2019-05-23T23:18:51.156Z,4.10
2019-05-23T23:21:19.617Z,3.97
2019-05-23T23:23:48.041Z,3.63
2019-05-23T23:26:16.701Z,3.70
2019-05-23T23:28:45.100Z,4.10
2019-05-23T23:31:13.658Z,3.73
2019-05-23T23:33:42.155Z,3.60
2019-05-23T23:36:10.541Z,3.87
2019-05-23T23:38:39.142Z,3.50
2019-05-23T23:41:07.538Z,3.90
2019-05-23T23:43:35.942Z,4.00
2019-05-23T23:46:22.281Z,3.58
2019-05-23T23:49:08.364Z,3.60
2019-05-23T23:51:54.421Z,3.73
2019-05-23T23:54:40.173Z,3.67
2019-05-23T23:57:26.608Z,3.77
2019-05-23T23:59:54.321Z,3.53
